Dott, West Virginia
Current Conditions -  °F | °C
As of 12:34 AM on Thursday 27 Nov 2014 (Local Time) from KBLF Reporting Station
Moderate Fog Moderate Fog  
Wind Chill: 32°   Ceiling: 1500
Heat Index: 32°   Visibility: 0.25mi
Dew Point: 31°   Wind: 0mph
Humidity: 96%   Direction: NA
Pressure: 29.95"   Gusts: NA
Location:  37.4544°N, 81.2833°W
Report Text: KBLF 270534Z AUTO 00000KT 1/4SM FG BKN015 OVC070 00/M01 A2995 RMK AO2 I1000 T00001006 $
Loading
Personal Weather Stations






























Interactive Weather Map New forecast layout! Learn more

10-Day Weather Forecast

Advertisements
Track Severe Weather on mobile